TimeNDT,TemperatureF,Dew PointF,Humidity,Sea Level PressureIn,VisibilityMPH,Wind Direction,Wind SpeedMPH,Gust SpeedMPH,PrecipitationIn,Events,Conditions,WindDirDegrees,DateUTC
12:30 AM,57,49,65,30.01,,West,17.3,,,,,260,2013-09-07 03:00:00
12:30 AM,57.0,48.6,73,30.01,-9999.0,West,17.3,-,N/A,,Unknown,260,2013-09-07 03:00:00
1:30 AM,56.8,48.9,75,30.01,-9999.0,West,16.1,-,N/A,,Unknown,260,2013-09-07 04:00:00
2:30 AM,56.5,49.1,76,30.01,-9999.0,WSW,17.3,-,N/A,,Unknown,250,2013-09-07 05:00:00
3:30 AM,56,49,69,30.00,,WSW,16.1,,,,,250,2013-09-07 06:00:00
3:30 AM,56.1,48.6,76,30.00,-9999.0,WSW,16.1,-,N/A,,Unknown,250,2013-09-07 06:00:00
4:30 AM,56.7,49.3,76,29.98,-9999.0,WSW,16.1,-,N/A,,Unknown,240,2013-09-07 07:00:00
5:30 AM,57.9,50.0,75,29.99,-9999.0,SW,15.0,-,N/A,,Unknown,230,2013-09-07 08:00:00
6:30 AM,58,51,70,29.99,,SW,15.0,,,,,230,2013-09-07 09:00:00
6:30 AM,57.9,50.9,77,29.99,-9999.0,SW,15.0,-,N/A,,Unknown,230,2013-09-07 09:00:00
7:30 AM,58.6,51.6,77,29.99,-9999.0,SW,16.1,-,N/A,,Unknown,230,2013-09-07 10:00:00
8:30 AM,59.0,52.0,78,29.99,-9999.0,WSW,15.0,-,N/A,,Unknown,250,2013-09-07 11:00:00
9:30 AM,61,52,65,29.98,,WSW,20.7,,,,,240,2013-09-07 12:00:00
9:30 AM,60.6,52.2,74,29.98,-9999.0,WSW,20.7,-,N/A,,Unknown,240,2013-09-07 12:00:00
10:30 AM,61.3,52.7,73,29.99,-9999.0,WSW,18.4,-,N/A,,Unknown,240,2013-09-07 13:00:00
11:30 AM,61.7,52.7,72,29.99,-9999.0,SW,21.9,-,N/A,,Unknown,230,2013-09-07 14:00:00
12:30 PM,62,54,66,29.98,,SW,18.4,,,,,220,2013-09-07 15:00:00
12:30 PM,62.4,53.6,73,29.98,-9999.0,SW,18.4,-,N/A,,Unknown,220,2013-09-07 15:00:00
1:30 PM,63.1,54.5,73,29.96,-9999.0,SW,18.4,-,N/A,,Unknown,220,2013-09-07 16:00:00
2:30 PM,63.0,54.3,73,29.96,-9999.0,SW,20.7,-,N/A,,Unknown,220,2013-09-07 17:00:00
3:30 PM,63,55,68,29.94,,SW,18.4,,,,,220,2013-09-07 18:00:00
3:30 PM,62.8,55.0,76,29.94,-9999.0,SW,18.4,-,N/A,,Unknown,220,2013-09-07 18:00:00
4:30 PM,62.2,55.2,78,29.95,-9999.0,SW,17.3,-,N/A,,Unknown,220,2013-09-07 19:00:00
5:30 PM,61.2,55.2,81,29.94,-9999.0,SW,17.3,-,N/A,,Unknown,220,2013-09-07 20:00:00
6:30 PM,60.6,55.0,82,29.93,-9999.0,SW,16.1,-,N/A,,Unknown,220,2013-09-07 21:00:00
7:30 PM,60.1,55.2,84,29.92,-9999.0,SW,18.4,-,N/A,,Unknown,220,2013-09-07 22:00:00
8:30 PM,59.9,55.8,86,29.93,-9999.0,SW,17.3,-,N/A,,Unknown,220,2013-09-07 23:00:00
9:30 PM,60,56,81,29.92,,SSW,15.0,,,,,210,2013-09-08 00:00:00
9:30 PM,59.7,55.6,86,29.92,-9999.0,SSW,15.0,-,N/A,,Unknown,210,2013-09-08 00:00:00
10:30 PM,59.2,55.9,89,29.91,-9999.0,SSW,16.1,-,N/A,,Unknown,210,2013-09-08 01:00:00
11:30 PM,59.2,55.6,88,29.89,-9999.0,SSW,18.4,-,N/A,,Unknown,200,2013-09-08 02:00:00